Bentonville, Arkansas
Current Conditions -  °F | °C
As of 4:35 PM on Monday 24 Nov 2014 (Local Time) from KVBT Reporting Station
Few Clouds Few Clouds  
Wind Chill: 44°   Ceiling: Unl
Heat Index: 48°   Visibility: 10mi
Dew Point: 25°   Wind: 10mph
Humidity: 40%   Direction: 290°WNW
Pressure: 29.94"   Gusts: NA
Location:  36.37°N, 94.21°W
Report Text: KVBT 242235Z AUTO 29009KT 10SM FEW065 09/M04 A2994 RMK AO1
Loading
Personal Weather Stations






























Interactive Weather Map New forecast layout! Learn more

10-Day Weather Forecast

Advertisements
Track Severe Weather on mobile